This is the latest recevied weather packets stored in our database for station/object KO4IDC-13. If no packets are shown the sender has not sent any weather packets the latest 10 day(s).
| Time | Temp. | Humidity | Pressure | Rain* | Wind** | Luminosity | Snow |
|---|---|---|---|---|---|---|---|
| 1778185698 | 18.89° C | 35% | 1017.8 hPa | 0 mm | - | 516 W/m² | - |
| 1778185394 | 18.33° C | 35% | 1017.8 hPa | 0 mm | - | 526 W/m² | - |
| 1778185089 | 19.44° C | 36% | 1018 hPa | 0 mm | - | 539 W/m² | - |
| 1778184786 | 19.44° C | 37% | 1018 hPa | 0 mm | - | 550 W/m² | - |
| 1778184482 | 18.33° C | 33% | 1017.8 hPa | 0 mm | - | 562 W/m² | - |
| 1778184178 | 18.33° C | 35% | 1018 hPa | 0 mm | - | 571 W/m² | - |
| 1778183874 | 18.33° C | 32% | 1018.1 hPa | 0 mm | - | 582 W/m² | - |
| 1778183572 | 18.33° C | 33% | 1018.2 hPa | 0 mm | - | 594 W/m² | - |
| 1778183269 | 17.78° C | 35% | 1018.2 hPa | 0 mm | - | 604 W/m² | - |
| 1778182965 | 17.78° C | 33% | 1018.1 hPa | 0 mm | - | 615 W/m² | - |
| 1778182661 | 17.22° C | 34% | 1018.1 hPa | 0 mm | - | 624 W/m² | - |
| 1778182358 | 17.78° C | 33% | 1018 hPa | 0 mm | - | 634 W/m² | - |
| 1778182054 | 18.33° C | 35% | 1018.4 hPa | 0 mm | - | 644 W/m² | - |
| 1778181751 | 17.78° C | 36% | 1018.3 hPa | 0 mm | - | 652 W/m² | - |
| 1778181447 | 17.78° C | 33% | 1018.4 hPa | 0 mm | - | 660 W/m² | - |
| 1778181144 | 17.78° C | 34% | 1018.4 hPa | 0 mm | - | 665 W/m² | - |
| 1778180841 | 17.78° C | 34% | 1018.4 hPa | 0 mm | - | 673 W/m² | - |
| 1778180540 | 17.78° C | 35% | 1018.4 hPa | 0 mm | - | 681 W/m² | - |
| 1778180238 | 17.78° C | 34% | 1018.4 hPa | 0 mm | - | 688 W/m² | - |
| 1778179934 | 17.22° C | 36% | 1018.4 hPa | 0 mm | - | 694 W/m² | - |
| 1778179632 | 17.78° C | 33% | 1018.5 hPa | 0 mm | - | 701 W/m² | - |
| 1778179330 | 17.78° C | 33% | 1018.6 hPa | 0 mm | - | 706 W/m² | - |
| 1778179026 | 17.22° C | 34% | 1018.6 hPa | 0 mm | - | 711 W/m² | - |
| 1778178722 | 17.22° C | 34% | 1018.6 hPa | 0 mm | - | 717 W/m² | - |
| 1778178420 | 17.22° C | 35% | 1018.6 hPa | 0 mm | - | 720 W/m² | - |
* Rain latest hour (hover to see other rain measurements)
** Current wind speed in m/s (hover to see current wind gust speed)